sensor_id;sensor_type;location;lat;lon;timestamp;P1;durP1;ratioP1;P2;durP2;ratioP2
75358;SDS011;64046;51.978;5.934;2023-06-14T00:00:54;6.68;;;2.97;;
75358;SDS011;64046;51.978;5.934;2023-06-14T00:03:27;3.60;;;2.38;;
75358;SDS011;64046;51.978;5.934;2023-06-14T00:05:59;5.10;;;2.70;;
75358;SDS011;64046;51.978;5.934;2023-06-14T00:08:33;5.70;;;2.88;;
75358;SDS011;64046;51.978;5.934;2023-06-14T00:11:06;3.33;;;2.30;;
75358;SDS011;64046;51.978;5.934;2023-06-14T00:13:38;5.97;;;2.80;;
75358;SDS011;64046;51.978;5.934;2023-06-14T00:16:12;6.75;;;2.30;;
75358;SDS011;64046;51.978;5.934;2023-06-14T00:18:46;3.70;;;2.15;;
75358;SDS011;64046;51.978;5.934;2023-06-14T00:21:19;5.30;;;3.08;;
75358;SDS011;64046;51.978;5.934;2023-06-14T00:23:51;5.43;;;2.47;;
75358;SDS011;64046;51.978;5.934;2023-06-14T00:26:20;8.15;;;2.85;;
75358;SDS011;64046;51.978;5.934;2023-06-14T00:28:49;6.82;;;2.95;;
75358;SDS011;64046;51.978;5.934;2023-06-14T00:31:23;4.05;;;2.30;;
75358;SDS011;64046;51.978;5.934;2023-06-14T00:33:54;3.88;;;2.40;;
75358;SDS011;64046;51.978;5.934;2023-06-14T00:36:26;4.47;;;2.47;;
75358;SDS011;64046;51.978;5.934;2023-06-14T00:38:55;8.05;;;2.65;;
75358;SDS011;64046;51.978;5.934;2023-06-14T00:41:25;5.78;;;2.58;;
75358;SDS011;64046;51.978;5.934;2023-06-14T00:43:56;5.68;;;2.58;;
75358;SDS011;64046;51.978;5.934;2023-06-14T00:46:35;6.35;;;2.45;;
75358;SDS011;64046;51.978;5.934;2023-06-14T00:49:06;4.15;;;2.67;;
75358;SDS011;64046;51.978;5.934;2023-06-14T00:51:37;7.90;;;2.33;;
75358;SDS011;64046;51.978;5.934;2023-06-14T00:54:06;6.35;;;2.75;;
75358;SDS011;64046;51.978;5.934;2023-06-14T00:56:36;7.13;;;2.40;;
75358;SDS011;64046;51.978;5.934;2023-06-14T00:59:08;2.53;;;1.92;;
75358;SDS011;64046;51.978;5.934;2023-06-14T01:01:45;10.77;;;2.67;;
75358;SDS011;64046;51.978;5.934;2023-06-14T01:04:14;6.53;;;2.28;;
75358;SDS011;64046;51.978;5.934;2023-06-14T01:06:49;4.30;;;2.53;;
75358;SDS011;64046;51.978;5.934;2023-06-14T01:09:31;9.82;;;2.28;;
75358;SDS011;64046;51.978;5.934;2023-06-14T01:12:09;6.28;;;2.83;;
75358;SDS011;64046;51.978;5.934;2023-06-14T01:14:47;5.47;;;2.25;;
75358;SDS011;64046;51.978;5.934;2023-06-14T01:17:21;7.10;;;2.33;;
75358;SDS011;64046;51.978;5.934;2023-06-14T01:19:52;6.55;;;2.20;;
75358;SDS011;64046;51.978;5.934;2023-06-14T01:22:25;6.35;;;2.28;;
75358;SDS011;64046;51.978;5.934;2023-06-14T01:24:58;7.93;;;2.25;;
75358;SDS011;64046;51.978;5.934;2023-06-14T01:27:28;7.05;;;2.78;;
75358;SDS011;64046;51.978;5.934;2023-06-14T01:30:08;3.35;;;2.03;;
75358;SDS011;64046;51.978;5.934;2023-06-14T01:32:41;3.65;;;2.13;;
75358;SDS011;64046;51.978;5.934;2023-06-14T01:35:12;5.45;;;2.38;;
75358;SDS011;64046;51.978;5.934;2023-06-14T01:37:41;5.57;;;2.35;;
75358;SDS011;64046;51.978;5.934;2023-06-14T01:40:16;5.55;;;2.25;;
75358;SDS011;64046;51.978;5.934;2023-06-14T01:42:51;7.00;;;2.40;;
75358;SDS011;64046;51.978;5.934;2023-06-14T01:45:26;5.40;;;2.15;;
75358;SDS011;64046;51.978;5.934;2023-06-14T01:47:57;4.32;;;2.40;;
75358;SDS011;64046;51.978;5.934;2023-06-14T01:53:15;8.80;;;2.70;;
75358;SDS011;64046;51.978;5.934;2023-06-14T01:55:51;4.15;;;2.40;;
75358;SDS011;64046;51.978;5.934;2023-06-14T01:58:21;3.58;;;2.42;;
75358;SDS011;64046;51.978;5.934;2023-06-14T02:00:54;4.95;;;2.20;;
75358;SDS011;64046;51.978;5.934;2023-06-14T02:03:29;4.88;;;2.10;;
75358;SDS011;64046;51.978;5.934;2023-06-14T02:06:00;5.28;;;2.00;;
75358;SDS011;64046;51.978;5.934;2023-06-14T02:08:29;4.55;;;2.10;;
75358;SDS011;64046;51.978;5.934;2023-06-14T02:11:06;5.53;;;2.30;;
75358;SDS011;64046;51.978;5.934;2023-06-14T02:13:38;4.65;;;2.10;;
75358;SDS011;64046;51.978;5.934;2023-06-14T02:16:08;5.50;;;2.50;;
75358;SDS011;64046;51.978;5.934;2023-06-14T02:18:40;6.30;;;2.85;;
75358;SDS011;64046;51.978;5.934;2023-06-14T02:21:12;4.72;;;2.00;;
75358;SDS011;64046;51.978;5.934;2023-06-14T02:23:41;2.90;;;2.22;;
75358;SDS011;64046;51.978;5.934;2023-06-14T02:26:13;6.30;;;2.42;;
75358;SDS011;64046;51.978;5.934;2023-06-14T02:28:43;3.20;;;1.90;;
75358;SDS011;64046;51.978;5.934;2023-06-14T02:31:13;5.78;;;2.35;;
75358;SDS011;64046;51.978;5.934;2023-06-14T02:33:46;3.58;;;2.28;;
75358;SDS011;64046;51.978;5.934;2023-06-14T02:36:20;4.07;;;2.20;;
75358;SDS011;64046;51.978;5.934;2023-06-14T02:38:50;5.40;;;2.40;;
75358;SDS011;64046;51.978;5.934;2023-06-14T02:41:22;5.15;;;2.53;;
75358;SDS011;64046;51.978;5.934;2023-06-14T02:43:53;3.33;;;2.15;;
75358;SDS011;64046;51.978;5.934;2023-06-14T02:46:24;3.47;;;2.13;;
75358;SDS011;64046;51.978;5.934;2023-06-14T02:48:54;3.80;;;2.40;;
75358;SDS011;64046;51.978;5.934;2023-06-14T02:51:27;4.03;;;2.30;;
75358;SDS011;64046;51.978;5.934;2023-06-14T02:53:56;5.20;;;2.28;;
75358;SDS011;64046;51.978;5.934;2023-06-14T02:56:29;10.70;;;2.42;;
75358;SDS011;64046;51.978;5.934;2023-06-14T02:59:08;3.25;;;2.13;;
75358;SDS011;64046;51.978;5.934;2023-06-14T03:01:41;6.90;;;2.35;;
75358;SDS011;64046;51.978;5.934;2023-06-14T03:04:14;4.95;;;2.47;;
75358;SDS011;64046;51.978;5.934;2023-06-14T03:06:43;8.10;;;3.25;;
75358;SDS011;64046;51.978;5.934;2023-06-14T03:09:19;5.18;;;2.00;;
75358;SDS011;64046;51.978;5.934;2023-06-14T03:11:51;5.95;;;2.45;;
75358;SDS011;64046;51.978;5.934;2023-06-14T03:14:25;5.43;;;2.10;;
75358;SDS011;64046;51.978;5.934;2023-06-14T03:16:57;6.85;;;2.38;;
75358;SDS011;64046;51.978;5.934;2023-06-14T03:19:27;7.28;;;2.10;;
75358;SDS011;64046;51.978;5.934;2023-06-14T03:21:59;7.22;;;2.70;;
75358;SDS011;64046;51.978;5.934;2023-06-14T03:24:33;5.35;;;2.70;;
75358;SDS011;64046;51.978;5.934;2023-06-14T03:27:12;3.90;;;2.20;;
75358;SDS011;64046;51.978;5.934;2023-06-14T03:29:46;3.70;;;1.95;;
75358;SDS011;64046;51.978;5.934;2023-06-14T03:32:16;6.20;;;1.92;;
75358;SDS011;64046;51.978;5.934;2023-06-14T03:34:48;6.75;;;2.72;;
75358;SDS011;64046;51.978;5.934;2023-06-14T03:37:32;3.38;;;2.13;;
75358;SDS011;64046;51.978;5.934;2023-06-14T03:40:04;3.42;;;2.10;;
75358;SDS011;64046;51.978;5.934;2023-06-14T03:42:43;6.45;;;2.40;;
75358;SDS011;64046;51.978;5.934;2023-06-14T03:45:17;5.18;;;2.30;;
75358;SDS011;64046;51.978;5.934;2023-06-14T03:47:49;5.07;;;2.33;;
75358;SDS011;64046;51.978;5.934;2023-06-14T03:50:20;7.07;;;2.25;;
75358;SDS011;64046;51.978;5.934;2023-06-14T03:52:51;5.32;;;2.08;;
75358;SDS011;64046;51.978;5.934;2023-06-14T03:55:22;6.82;;;2.20;;
75358;SDS011;64046;51.978;5.934;2023-06-14T03:57:56;5.10;;;2.63;;
75358;SDS011;64046;51.978;5.934;2023-06-14T04:00:29;5.80;;;2.42;;
75358;SDS011;64046;51.978;5.934;2023-06-14T04:03:02;4.78;;;1.88;;
75358;SDS011;64046;51.978;5.934;2023-06-14T04:05:35;3.30;;;2.03;;
75358;SDS011;64046;51.978;5.934;2023-06-14T04:08:09;3.95;;;2.10;;
75358;SDS011;64046;51.978;5.934;2023-06-14T04:10:41;4.90;;;2.28;;
75358;SDS011;64046;51.978;5.934;2023-06-14T04:13:19;3.47;;;2.10;;
75358;SDS011;64046;51.978;5.934;2023-06-14T04:15:48;2.38;;;1.77;;
75358;SDS011;64046;51.978;5.934;2023-06-14T04:18:24;6.18;;;2.20;;
75358;SDS011;64046;51.978;5.934;2023-06-14T04:20:53;3.08;;;2.28;;
75358;SDS011;64046;51.978;5.934;2023-06-14T04:23:23;5.20;;;2.05;;
75358;SDS011;64046;51.978;5.934;2023-06-14T04:25:54;5.35;;;2.20;;
75358;SDS011;64046;51.978;5.934;2023-06-14T04:28:30;9.45;;;2.65;;
75358;SDS011;64046;51.978;5.934;2023-06-14T04:31:10;3.42;;;1.90;;
75358;SDS011;64046;51.978;5.934;2023-06-14T04:33:42;5.50;;;2.55;;
75358;SDS011;64046;51.978;5.934;2023-06-14T04:36:17;5.38;;;2.40;;
75358;SDS011;64046;51.978;5.934;2023-06-14T04:38:49;4.05;;;2.10;;
75358;SDS011;64046;51.978;5.934;2023-06-14T04:41:22;5.03;;;1.98;;
75358;SDS011;64046;51.978;5.934;2023-06-14T04:44:00;3.13;;;1.90;;
75358;SDS011;64046;51.978;5.934;2023-06-14T04:46:39;7.00;;;2.42;;
75358;SDS011;64046;51.978;5.934;2023-06-14T04:49:19;4.75;;;2.08;;
75358;SDS011;64046;51.978;5.934;2023-06-14T04:51:53;4.68;;;2.25;;
75358;SDS011;64046;51.978;5.934;2023-06-14T04:54:41;2.85;;;2.15;;
75358;SDS011;64046;51.978;5.934;2023-06-14T04:57:17;4.30;;;2.20;;
75358;SDS011;64046;51.978;5.934;2023-06-14T04:59:52;9.77;;;2.17;;
75358;SDS011;64046;51.978;5.934;2023-06-14T05:02:26;5.75;;;2.47;;
75358;SDS011;64046;51.978;5.934;2023-06-14T05:04:57;4.53;;;2.30;;
75358;SDS011;64046;51.978;5.934;2023-06-14T05:07:29;3.90;;;2.10;;
75358;SDS011;64046;51.978;5.934;2023-06-14T05:10:04;4.47;;;2.00;;
75358;SDS011;64046;51.978;5.934;2023-06-14T05:12:38;6.80;;;2.30;;
75358;SDS011;64046;51.978;5.934;2023-06-14T05:15:13;4.78;;;2.10;;
75358;SDS011;64046;51.978;5.934;2023-06-14T05:17:43;3.90;;;2.53;;
75358;SDS011;64046;51.978;5.934;2023-06-14T05:20:16;6.40;;;2.53;;
75358;SDS011;64046;51.978;5.934;2023-06-14T05:22:53;4.90;;;2.40;;
75358;SDS011;64046;51.978;5.934;2023-06-14T05:25:26;5.05;;;2.38;;
75358;SDS011;64046;51.978;5.934;2023-06-14T05:27:59;5.03;;;2.35;;
75358;SDS011;64046;51.978;5.934;2023-06-14T05:30:36;6.50;;;2.53;;
75358;SDS011;64046;51.978;5.934;2023-06-14T05:33:08;5.35;;;2.28;;
75358;SDS011;64046;51.978;5.934;2023-06-14T05:35:42;7.40;;;2.65;;
75358;SDS011;64046;51.978;5.934;2023-06-14T05:38:14;4.05;;;2.30;;
75358;SDS011;64046;51.978;5.934;2023-06-14T05:40:44;3.53;;;2.13;;
75358;SDS011;64046;51.978;5.934;2023-06-14T05:43:13;3.67;;;2.25;;
75358;SDS011;64046;51.978;5.934;2023-06-14T05:45:46;6.68;;;2.47;;
75358;SDS011;64046;51.978;5.934;2023-06-14T05:48:15;7.93;;;2.30;;
75358;SDS011;64046;51.978;5.934;2023-06-14T05:50:52;5.72;;;2.22;;
75358;SDS011;64046;51.978;5.934;2023-06-14T05:53:25;4.95;;;2.10;;
75358;SDS011;64046;51.978;5.934;2023-06-14T05:55:57;4.45;;;2.17;;
75358;SDS011;64046;51.978;5.934;2023-06-14T05:58:31;6.55;;;2.80;;
75358;SDS011;64046;51.978;5.934;2023-06-14T06:01:04;7.47;;;2.55;;
75358;SDS011;64046;51.978;5.934;2023-06-14T06:03:36;4.63;;;2.17;;
75358;SDS011;64046;51.978;5.934;2023-06-14T06:06:07;4.22;;;2.58;;
75358;SDS011;64046;51.978;5.934;2023-06-14T06:08:37;7.57;;;2.40;;
75358;SDS011;64046;51.978;5.934;2023-06-14T06:11:14;3.78;;;2.25;;
75358;SDS011;64046;51.978;5.934;2023-06-14T06:13:47;5.88;;;2.22;;
75358;SDS011;64046;51.978;5.934;2023-06-14T06:16:21;4.45;;;2.67;;
75358;SDS011;64046;51.978;5.934;2023-06-14T06:18:57;9.10;;;2.65;;
75358;SDS011;64046;51.978;5.934;2023-06-14T06:21:30;6.68;;;2.78;;
75358;SDS011;64046;51.978;5.934;2023-06-14T06:23:59;3.78;;;2.28;;
75358;SDS011;64046;51.978;5.934;2023-06-14T06:26:31;6.32;;;2.85;;
75358;SDS011;64046;51.978;5.934;2023-06-14T06:29:08;3.90;;;2.42;;
75358;SDS011;64046;51.978;5.934;2023-06-14T06:31:40;4.28;;;2.70;;
75358;SDS011;64046;51.978;5.934;2023-06-14T06:34:14;4.60;;;2.30;;
75358;SDS011;64046;51.978;5.934;2023-06-14T06:36:46;4.65;;;2.28;;
75358;SDS011;64046;51.978;5.934;2023-06-14T06:39:16;5.28;;;2.72;;
75358;SDS011;64046;51.978;5.934;2023-06-14T06:41:48;4.43;;;2.35;;
75358;SDS011;64046;51.978;5.934;2023-06-14T06:44:31;3.78;;;2.35;;
75358;SDS011;64046;51.978;5.934;2023-06-14T06:47:05;5.75;;;2.08;;
75358;SDS011;64046;51.978;5.934;2023-06-14T06:49:39;3.33;;;2.28;;
75358;SDS011;64046;51.978;5.934;2023-06-14T06:52:09;4.35;;;2.22;;
75358;SDS011;64046;51.978;5.934;2023-06-14T06:55:04;5.28;;;2.45;;
75358;SDS011;64046;51.978;5.934;2023-06-14T06:57:38;4.85;;;2.22;;
75358;SDS011;64046;51.978;5.934;2023-06-14T07:00:09;5.35;;;2.22;;
75358;SDS011;64046;51.978;5.934;2023-06-14T07:02:49;3.20;;;2.17;;
75358;SDS011;64046;51.978;5.934;2023-06-14T07:05:21;6.18;;;3.03;;
75358;SDS011;64046;51.978;5.934;2023-06-14T07:07:50;5.90;;;2.22;;
75358;SDS011;64046;51.978;5.934;2023-06-14T07:10:20;3.90;;;2.08;;
75358;SDS011;64046;51.978;5.934;2023-06-14T07:12:51;4.53;;;2.40;;
75358;SDS011;64046;51.978;5.934;2023-06-14T07:15:21;3.63;;;2.00;;
75358;SDS011;64046;51.978;5.934;2023-06-14T07:17:55;6.28;;;2.10;;
75358;SDS011;64046;51.978;5.934;2023-06-14T07:20:29;4.88;;;2.42;;
75358;SDS011;64046;51.978;5.934;2023-06-14T07:22:59;4.60;;;2.17;;
75358;SDS011;64046;51.978;5.934;2023-06-14T07:25:29;5.13;;;2.20;;
75358;SDS011;64046;51.978;5.934;2023-06-14T07:27:58;2.88;;;1.90;;
75358;SDS011;64046;51.978;5.934;2023-06-14T07:30:31;3.22;;;1.90;;
75358;SDS011;64046;51.978;5.934;2023-06-14T07:33:07;4.05;;;2.00;;
75358;SDS011;64046;51.978;5.934;2023-06-14T07:35:38;4.53;;;1.48;;
75358;SDS011;64046;51.978;5.934;2023-06-14T07:38:07;3.10;;;1.90;;
75358;SDS011;64046;51.978;5.934;2023-06-14T07:40:37;4.15;;;2.13;;
75358;SDS011;64046;51.978;5.934;2023-06-14T07:43:08;5.63;;;1.92;;
75358;SDS011;64046;51.978;5.934;2023-06-14T07:45:40;3.40;;;1.95;;
75358;SDS011;64046;51.978;5.934;2023-06-14T07:48:19;3.97;;;2.42;;
75358;SDS011;64046;51.978;5.934;2023-06-14T07:50:53;4.45;;;1.88;;
75358;SDS011;64046;51.978;5.934;2023-06-14T07:53:29;3.35;;;1.63;;
75358;SDS011;64046;51.978;5.934;2023-06-14T07:56:00;3.00;;;1.73;;
75358;SDS011;64046;51.978;5.934;2023-06-14T07:58:30;4.43;;;1.40;;
75358;SDS011;64046;51.978;5.934;2023-06-14T08:01:01;3.92;;;1.42;;
75358;SDS011;64046;51.978;5.934;2023-06-14T08:03:38;2.33;;;1.45;;
75358;SDS011;64046;51.978;5.934;2023-06-14T08:06:14;5.78;;;1.67;;
75358;SDS011;64046;51.978;5.934;2023-06-14T08:08:47;5.35;;;2.00;;
75358;SDS011;64046;51.978;5.934;2023-06-14T08:11:17;2.90;;;1.85;;
75358;SDS011;64046;51.978;5.934;2023-06-14T08:13:51;2.65;;;1.50;;
75358;SDS011;64046;51.978;5.934;2023-06-14T08:16:20;8.77;;;1.95;;
75358;SDS011;64046;51.978;5.934;2023-06-14T08:18:52;3.33;;;1.90;;
75358;SDS011;64046;51.978;5.934;2023-06-14T08:21:24;5.03;;;1.63;;
75358;SDS011;64046;51.978;5.934;2023-06-14T08:23:59;3.25;;;1.70;;
75358;SDS011;64046;51.978;5.934;2023-06-14T08:26:28;7.15;;;2.05;;
75358;SDS011;64046;51.978;5.934;2023-06-14T08:28:59;2.33;;;1.55;;
75358;SDS011;64046;51.978;5.934;2023-06-14T08:31:31;2.67;;;1.73;;
75358;SDS011;64046;51.978;5.934;2023-06-14T08:34:04;5.88;;;2.30;;
75358;SDS011;64046;51.978;5.934;2023-06-14T08:36:34;2.95;;;1.65;;
75358;SDS011;64046;51.978;5.934;2023-06-14T08:39:05;3.17;;;1.73;;
75358;SDS011;64046;51.978;5.934;2023-06-14T08:41:37;4.80;;;1.80;;
75358;SDS011;64046;51.978;5.934;2023-06-14T08:44:07;3.92;;;1.60;;
75358;SDS011;64046;51.978;5.934;2023-06-14T08:46:39;2.50;;;2.00;;
75358;SDS011;64046;51.978;5.934;2023-06-14T08:49:14;4.80;;;1.67;;
75358;SDS011;64046;51.978;5.934;2023-06-14T08:51:51;3.08;;;1.45;;
75358;SDS011;64046;51.978;5.934;2023-06-14T08:54:30;2.20;;;1.75;;
75358;SDS011;64046;51.978;5.934;2023-06-14T08:57:11;3.20;;;1.75;;
75358;SDS011;64046;51.978;5.934;2023-06-14T08:59:44;4.30;;;1.50;;
75358;SDS011;64046;51.978;5.934;2023-06-14T09:02:19;2.65;;;1.55;;
75358;SDS011;64046;51.978;5.934;2023-06-14T09:04:54;3.58;;;1.63;;
75358;SDS011;64046;51.978;5.934;2023-06-14T09:07:25;3.10;;;1.52;;
75358;SDS011;64046;51.978;5.934;2023-06-14T09:10:05;3.22;;;1.80;;
75358;SDS011;64046;51.978;5.934;2023-06-14T09:12:38;2.88;;;1.85;;
75358;SDS011;64046;51.978;5.934;2023-06-14T09:15:09;4.22;;;1.60;;
75358;SDS011;64046;51.978;5.934;2023-06-14T09:17:48;2.35;;;1.77;;
75358;SDS011;64046;51.978;5.934;2023-06-14T09:20:28;4.25;;;1.67;;
75358;SDS011;64046;51.978;5.934;2023-06-14T09:23:04;7.13;;;1.95;;
75358;SDS011;64046;51.978;5.934;2023-06-14T09:28:26;2.35;;;1.52;;
75358;SDS011;64046;51.978;5.934;2023-06-14T09:30:59;2.42;;;1.50;;
75358;SDS011;64046;51.978;5.934;2023-06-14T09:33:30;3.05;;;1.70;;
75358;SDS011;64046;51.978;5.934;2023-06-14T09:36:04;2.53;;;1.50;;
75358;SDS011;64046;51.978;5.934;2023-06-14T09:38:41;3.78;;;1.60;;
75358;SDS011;64046;51.978;5.934;2023-06-14T09:41:27;6.13;;;3.47;;
75358;SDS011;64046;51.978;5.934;2023-06-14T09:44:04;3.03;;;1.60;;
75358;SDS011;64046;51.978;5.934;2023-06-14T09:46:38;2.13;;;1.67;;
75358;SDS011;64046;51.978;5.934;2023-06-14T09:49:08;2.67;;;1.50;;
75358;SDS011;64046;51.978;5.934;2023-06-14T09:51:45;3.45;;;1.95;;
75358;SDS011;64046;51.978;5.934;2023-06-14T09:54:20;2.53;;;1.48;;
75358;SDS011;64046;51.978;5.934;2023-06-14T09:56:57;2.53;;;1.45;;
75358;SDS011;64046;51.978;5.934;2023-06-14T09:59:37;3.17;;;1.30;;
75358;SDS011;64046;51.978;5.934;2023-06-14T10:02:17;2.95;;;1.35;;
75358;SDS011;64046;51.978;5.934;2023-06-14T10:04:58;1.55;;;1.33;;
75358;SDS011;64046;51.978;5.934;2023-06-14T10:07:38;5.93;;;1.50;;
75358;SDS011;64046;51.978;5.934;2023-06-14T10:10:14;3.17;;;1.45;;
75358;SDS011;64046;51.978;5.934;2023-06-14T10:12:44;4.53;;;1.70;;
75358;SDS011;64046;51.978;5.934;2023-06-14T10:15:17;2.95;;;1.77;;
75358;SDS011;64046;51.978;5.934;2023-06-14T10:18:00;2.35;;;1.60;;
75358;SDS011;64046;51.978;5.934;2023-06-14T10:20:38;2.45;;;1.52;;
75358;SDS011;64046;51.978;5.934;2023-06-14T10:23:22;3.47;;;1.77;;
75358;SDS011;64046;51.978;5.934;2023-06-14T10:25:58;7.10;;;1.73;;
75358;SDS011;64046;51.978;5.934;2023-06-14T10:28:31;3.20;;;1.60;;
75358;SDS011;64046;51.978;5.934;2023-06-14T10:31:06;2.20;;;1.40;;
75358;SDS011;64046;51.978;5.934;2023-06-14T10:33:48;6.95;;;1.67;;
75358;SDS011;64046;51.978;5.934;2023-06-14T10:36:26;2.42;;;1.33;;
75358;SDS011;64046;51.978;5.934;2023-06-14T10:39:04;4.05;;;1.75;;
75358;SDS011;64046;51.978;5.934;2023-06-14T10:41:38;1.77;;;1.42;;
75358;SDS011;64046;51.978;5.934;2023-06-14T10:47:20;4.60;;;1.60;;
75358;SDS011;64046;51.978;5.934;2023-06-14T10:50:02;3.45;;;1.40;;
75358;SDS011;64046;51.978;5.934;2023-06-14T10:52:43;4.13;;;1.80;;
75358;SDS011;64046;51.978;5.934;2023-06-14T10:55:18;5.20;;;2.85;;
75358;SDS011;64046;51.978;5.934;2023-06-14T10:57:53;5.75;;;2.05;;
75358;SDS011;64046;51.978;5.934;2023-06-14T11:00:28;2.92;;;1.70;;
75358;SDS011;64046;51.978;5.934;2023-06-14T11:06:19;4.18;;;1.30;;
75358;SDS011;64046;51.978;5.934;2023-06-14T11:12:09;3.05;;;1.40;;
75358;SDS011;64046;51.978;5.934;2023-06-14T11:14:39;7.07;;;1.52;;
75358;SDS011;64046;51.978;5.934;2023-06-14T11:17:14;4.65;;;1.52;;
75358;SDS011;64046;51.978;5.934;2023-06-14T11:19:46;2.25;;;1.55;;
75358;SDS011;64046;51.978;5.934;2023-06-14T11:22:17;5.80;;;1.73;;
75358;SDS011;64046;51.978;5.934;2023-06-14T11:24:47;3.15;;;1.70;;
75358;SDS011;64046;51.978;5.934;2023-06-14T11:27:21;4.30;;;1.35;;
75358;SDS011;64046;51.978;5.934;2023-06-14T11:29:58;3.50;;;1.30;;
75358;SDS011;64046;51.978;5.934;2023-06-14T11:32:28;4.38;;;1.52;;
75358;SDS011;64046;51.978;5.934;2023-06-14T11:35:06;3.40;;;1.77;;
75358;SDS011;64046;51.978;5.934;2023-06-14T11:37:39;2.28;;;1.30;;
75358;SDS011;64046;51.978;5.934;2023-06-14T11:40:10;2.47;;;1.40;;
75358;SDS011;64046;51.978;5.934;2023-06-14T11:42:44;4.05;;;1.60;;
75358;SDS011;64046;51.978;5.934;2023-06-14T11:45:18;2.90;;;1.20;;
75358;SDS011;64046;51.978;5.934;2023-06-14T11:47:51;3.15;;;1.70;;
75358;SDS011;64046;51.978;5.934;2023-06-14T11:50:31;2.17;;;1.60;;
75358;SDS011;64046;51.978;5.934;2023-06-14T11:53:02;4.70;;;1.67;;
75358;SDS011;64046;51.978;5.934;2023-06-14T11:55:44;2.10;;;1.33;;
75358;SDS011;64046;51.978;5.934;2023-06-14T11:58:18;2.25;;;1.23;;
75358;SDS011;64046;51.978;5.934;2023-06-14T12:00:49;4.00;;;1.75;;
75358;SDS011;64046;51.978;5.934;2023-06-14T12:03:22;2.05;;;1.38;;
75358;SDS011;64046;51.978;5.934;2023-06-14T12:06:02;4.05;;;1.55;;
75358;SDS011;64046;51.978;5.934;2023-06-14T12:08:36;3.92;;;1.40;;
75358;SDS011;64046;51.978;5.934;2023-06-14T12:11:18;3.00;;;1.50;;
75358;SDS011;64046;51.978;5.934;2023-06-14T12:13:52;3.10;;;1.48;;
75358;SDS011;64046;51.978;5.934;2023-06-14T12:16:30;3.15;;;1.35;;
75358;SDS011;64046;51.978;5.934;2023-06-14T12:19:11;2.28;;;1.50;;
75358;SDS011;64046;51.978;5.934;2023-06-14T12:21:43;4.07;;;1.55;;
75358;SDS011;64046;51.978;5.934;2023-06-14T12:24:17;2.13;;;1.30;;
75358;SDS011;64046;51.978;5.934;2023-06-14T12:26:48;4.68;;;1.40;;
75358;SDS011;64046;51.978;5.934;2023-06-14T12:29:24;2.75;;;1.40;;
75358;SDS011;64046;51.978;5.934;2023-06-14T12:31:54;1.73;;;1.30;;
75358;SDS011;64046;51.978;5.934;2023-06-14T12:34:25;3.17;;;1.48;;
75358;SDS011;64046;51.978;5.934;2023-06-14T12:36:59;3.17;;;1.40;;
75358;SDS011;64046;51.978;5.934;2023-06-14T12:39:30;5.22;;;1.60;;
75358;SDS011;64046;51.978;5.934;2023-06-14T12:42:00;4.13;;;1.80;;
75358;SDS011;64046;51.978;5.934;2023-06-14T12:44:36;1.67;;;1.38;;
75358;SDS011;64046;51.978;5.934;2023-06-14T12:47:07;3.25;;;1.60;;
75358;SDS011;64046;51.978;5.934;2023-06-14T12:49:40;4.70;;;1.40;;
75358;SDS011;64046;51.978;5.934;2023-06-14T12:52:11;2.42;;;1.60;;
75358;SDS011;64046;51.978;5.934;2023-06-14T12:54:47;4.00;;;1.38;;
75358;SDS011;64046;51.978;5.934;2023-06-14T12:57:17;2.15;;;1.30;;
75358;SDS011;64046;51.978;5.934;2023-06-14T12:59:50;2.83;;;1.50;;
75358;SDS011;64046;51.978;5.934;2023-06-14T13:02:22;1.98;;;1.50;;
75358;SDS011;64046;51.978;5.934;2023-06-14T13:04:56;1.60;;;1.20;;
75358;SDS011;64046;51.978;5.934;2023-06-14T13:07:31;2.45;;;1.10;;
75358;SDS011;64046;51.978;5.934;2023-06-14T13:10:15;3.22;;;1.52;;
75358;SDS011;64046;51.978;5.934;2023-06-14T13:12:47;1.77;;;1.08;;
75358;SDS011;64046;51.978;5.934;2023-06-14T13:15:24;5.88;;;1.20;;
75358;SDS011;64046;51.978;5.934;2023-06-14T13:17:55;3.35;;;1.42;;
75358;SDS011;64046;51.978;5.934;2023-06-14T13:20:27;3.90;;;1.40;;
75358;SDS011;64046;51.978;5.934;2023-06-14T13:23:02;1.60;;;0.93;;
75358;SDS011;64046;51.978;5.934;2023-06-14T13:25:52;2.33;;;1.08;;
75358;SDS011;64046;51.978;5.934;2023-06-14T13:28:25;1.98;;;1.20;;
75358;SDS011;64046;51.978;5.934;2023-06-14T13:31:11;2.08;;;1.23;;
75358;SDS011;64046;51.978;5.934;2023-06-14T13:33:42;2.40;;;1.10;;
75358;SDS011;64046;51.978;5.934;2023-06-14T13:36:12;2.95;;;1.23;;
75358;SDS011;64046;51.978;5.934;2023-06-14T13:38:51;2.17;;;1.40;;
75358;SDS011;64046;51.978;5.934;2023-06-14T13:41:27;2.78;;;1.38;;
75358;SDS011;64046;51.978;5.934;2023-06-14T13:44:01;2.05;;;1.08;;
75358;SDS011;64046;51.978;5.934;2023-06-14T13:46:39;1.35;;;1.10;;
75358;SDS011;64046;51.978;5.934;2023-06-14T13:49:16;3.00;;;1.13;;
75358;SDS011;64046;51.978;5.934;2023-06-14T13:54:28;2.35;;;1.02;;
75358;SDS011;64046;51.978;5.934;2023-06-14T13:57:03;1.85;;;0.90;;
75358;SDS011;64046;51.978;5.934;2023-06-14T13:59:33;2.47;;;1.00;;
75358;SDS011;64046;51.978;5.934;2023-06-14T14:02:07;2.47;;;1.13;;
75358;SDS011;64046;51.978;5.934;2023-06-14T14:04:44;2.08;;;1.58;;
75358;SDS011;64046;51.978;5.934;2023-06-14T14:07:19;2.40;;;1.20;;
75358;SDS011;64046;51.978;5.934;2023-06-14T14:10:01;1.88;;;1.20;;
75358;SDS011;64046;51.978;5.934;2023-06-14T14:12:34;2.50;;;1.27;;
75358;SDS011;64046;51.978;5.934;2023-06-14T14:15:05;3.10;;;1.20;;
75358;SDS011;64046;51.978;5.934;2023-06-14T14:17:41;3.13;;;1.10;;
75358;SDS011;64046;51.978;5.934;2023-06-14T14:20:11;2.42;;;1.13;;
75358;SDS011;64046;51.978;5.934;2023-06-14T14:22:42;2.75;;;1.15;;
75358;SDS011;64046;51.978;5.934;2023-06-14T14:25:12;1.73;;;1.10;;
75358;SDS011;64046;51.978;5.934;2023-06-14T14:27:41;2.10;;;1.15;;
75358;SDS011;64046;51.978;5.934;2023-06-14T14:30:14;2.95;;;1.42;;
75358;SDS011;64046;51.978;5.934;2023-06-14T14:32:54;2.47;;;1.33;;
75358;SDS011;64046;51.978;5.934;2023-06-14T14:35:28;2.38;;;1.27;;
75358;SDS011;64046;51.978;5.934;2023-06-14T14:38:01;2.53;;;1.35;;
75358;SDS011;64046;51.978;5.934;2023-06-14T14:40:34;1.42;;;1.02;;
75358;SDS011;64046;51.978;5.934;2023-06-14T14:43:13;3.30;;;1.17;;
75358;SDS011;64046;51.978;5.934;2023-06-14T14:45:45;4.25;;;1.65;;
75358;SDS011;64046;51.978;5.934;2023-06-14T14:48:18;1.30;;;1.05;;
75358;SDS011;64046;51.978;5.934;2023-06-14T14:50:49;4.95;;;1.10;;
75358;SDS011;64046;51.978;5.934;2023-06-14T14:53:24;2.20;;;1.33;;
75358;SDS011;64046;51.978;5.934;2023-06-14T14:55:57;1.48;;;1.23;;
75358;SDS011;64046;51.978;5.934;2023-06-14T14:58:29;2.53;;;1.30;;
75358;SDS011;64046;51.978;5.934;2023-06-14T15:00:58;4.20;;;1.40;;
75358;SDS011;64046;51.978;5.934;2023-06-14T15:03:32;1.92;;;1.10;;
75358;SDS011;64046;51.978;5.934;2023-06-14T15:06:12;1.90;;;1.35;;
75358;SDS011;64046;51.978;5.934;2023-06-14T15:08:44;3.20;;;1.17;;
75358;SDS011;64046;51.978;5.934;2023-06-14T15:11:18;1.15;;;0.90;;
75358;SDS011;64046;51.978;5.934;2023-06-14T15:13:49;2.72;;;1.25;;
75358;SDS011;64046;51.978;5.934;2023-06-14T15:16:20;3.33;;;1.08;;
75358;SDS011;64046;51.978;5.934;2023-06-14T15:18:54;3.42;;;1.30;;
75358;SDS011;64046;51.978;5.934;2023-06-14T15:21:36;2.38;;;1.20;;
75358;SDS011;64046;51.978;5.934;2023-06-14T15:24:07;2.67;;;1.20;;
75358;SDS011;64046;51.978;5.934;2023-06-14T15:26:38;2.13;;;1.17;;
75358;SDS011;64046;51.978;5.934;2023-06-14T15:29:09;2.25;;;1.15;;
75358;SDS011;64046;51.978;5.934;2023-06-14T15:31:43;2.33;;;1.45;;
75358;SDS011;64046;51.978;5.934;2023-06-14T15:34:18;4.22;;;1.60;;
75358;SDS011;64046;51.978;5.934;2023-06-14T15:36:53;2.13;;;1.30;;
75358;SDS011;64046;51.978;5.934;2023-06-14T15:39:22;1.77;;;1.20;;
75358;SDS011;64046;51.978;5.934;2023-06-14T15:41:52;2.40;;;1.40;;
75358;SDS011;64046;51.978;5.934;2023-06-14T15:44:25;1.63;;;1.10;;